createdAt,value
2023-02-25T00:01:20.704Z,100.00
2023-02-25T00:03:48.541Z,100.00
2023-02-25T00:06:16.401Z,100.00
2023-02-25T00:08:45.786Z,100.00
2023-02-25T00:11:17.683Z,100.00
2023-02-25T00:13:45.935Z,100.00
2023-02-25T00:16:14.836Z,100.00
2023-02-25T00:18:44.469Z,100.00
2023-02-25T00:21:15.188Z,100.00
2023-02-25T00:23:44.356Z,100.00
2023-02-25T00:26:12.634Z,100.00
2023-02-25T00:28:43.145Z,100.00
2023-02-25T00:31:13.819Z,100.00
2023-02-25T00:33:42.250Z,100.00
2023-02-25T00:36:13.143Z,100.00
2023-02-25T00:38:41.558Z,100.00
2023-02-25T00:41:12.534Z,100.00
2023-02-25T00:43:43.994Z,100.00
2023-02-25T00:46:13.068Z,100.00
2023-02-25T00:48:42.080Z,100.00
2023-02-25T00:51:11.865Z,100.00
2023-02-25T00:53:39.920Z,100.00
2023-02-25T00:56:09.583Z,100.00
2023-02-25T00:58:37.809Z,100.00
2023-02-25T01:01:18.128Z,100.00
2023-02-25T01:03:47.623Z,100.00
2023-02-25T01:06:16.867Z,100.00
2023-02-25T01:08:45.365Z,100.00
2023-02-25T01:11:16.124Z,100.00
2023-02-25T01:13:44.999Z,100.00
2023-02-25T01:16:17.282Z,100.00
2023-02-25T01:18:46.394Z,100.00
2023-02-25T01:21:18.497Z,100.00
2023-02-25T01:23:47.264Z,100.00
2023-02-25T01:26:15.852Z,100.00
2023-02-25T01:28:44.154Z,100.00
2023-02-25T01:31:19.240Z,100.00
2023-02-25T01:33:47.718Z,100.00
2023-02-25T01:36:15.546Z,100.00
2023-02-25T01:38:43.364Z,100.00
2023-02-25T01:41:11.426Z,100.00
2023-02-25T01:43:39.292Z,100.00
2023-02-25T01:46:07.177Z,100.00
2023-02-25T01:48:40.621Z,100.00
2023-02-25T01:51:12.961Z,100.00
2023-02-25T01:53:46.620Z,100.00
2023-02-25T01:56:21.126Z,100.00
2023-02-25T01:58:49.929Z,100.00
2023-02-25T02:01:21.279Z,100.00
2023-02-25T02:03:52.661Z,100.00
2023-02-25T02:06:24.726Z,100.00
2023-02-25T02:08:52.757Z,100.00
2023-02-25T02:11:21.030Z,100.00
2023-02-25T02:13:54.170Z,100.00
2023-02-25T02:16:33.331Z,100.00
2023-02-25T02:19:20.000Z,100.00
2023-02-25T02:22:01.868Z,100.00
2023-02-25T02:25:11.184Z,100.00
2023-02-25T02:27:57.888Z,100.00
2023-02-25T02:30:47.659Z,100.00
2023-02-25T02:33:23.910Z,100.00
2023-02-25T02:35:58.215Z,100.00
2023-02-25T02:38:34.924Z,100.00
2023-02-25T02:41:10.595Z,100.00
2023-02-25T02:43:46.160Z,100.00
2023-02-25T02:46:19.955Z,100.00
2023-02-25T02:48:56.199Z,100.00
2023-02-25T02:51:28.756Z,100.00
2023-02-25T02:53:59.173Z,100.00
2023-02-25T02:56:29.694Z,100.00
2023-02-25T02:59:05.330Z,100.00
2023-02-25T03:01:37.083Z,100.00
2023-02-25T03:04:11.713Z,100.00
2023-02-25T03:06:43.491Z,100.00
2023-02-25T03:09:15.267Z,100.00
2023-02-25T03:11:43.323Z,100.00
2023-02-25T03:14:13.033Z,100.00
2023-02-25T03:16:47.052Z,100.00
2023-02-25T03:19:19.656Z,100.00
2023-02-25T03:21:54.760Z,100.00
2023-02-25T03:24:28.424Z,100.00
2023-02-25T03:26:57.027Z,100.00
2023-02-25T03:29:28.535Z,100.00
2023-02-25T03:32:03.264Z,100.00
2023-02-25T03:34:36.997Z,100.00
2023-02-25T03:37:10.602Z,100.00
2023-02-25T03:39:41.873Z,100.00
2023-02-25T03:42:14.431Z,100.00
2023-02-25T03:44:47.138Z,100.00
2023-02-25T03:47:17.018Z,100.00
2023-02-25T03:49:51.835Z,100.00
2023-02-25T03:52:24.114Z,100.00
2023-02-25T03:54:57.625Z,100.00
2023-02-25T03:57:34.859Z,100.00
2023-02-25T04:00:15.864Z,100.00
2023-02-25T04:02:45.016Z,100.00
2023-02-25T04:05:15.127Z,100.00
2023-02-25T04:07:43.485Z,100.00
2023-02-25T04:10:13.857Z,100.00
2023-02-25T04:12:42.092Z,100.00
2023-02-25T04:15:10.990Z,100.00
2023-02-25T04:17:39.105Z,100.00
2023-02-25T04:20:08.225Z,100.00
2023-02-25T04:22:37.419Z,100.00
2023-02-25T04:25:06.264Z,100.00
2023-02-25T04:27:34.110Z,100.00
2023-02-25T04:30:01.924Z,100.00
2023-02-25T04:32:29.893Z,100.00
2023-02-25T04:35:03.079Z,100.00
2023-02-25T04:37:31.063Z,100.00
2023-02-25T04:40:00.265Z,100.00
2023-02-25T04:42:28.071Z,100.00
2023-02-25T04:44:56.103Z,100.00
2023-02-25T04:47:24.070Z,100.00
2023-02-25T04:49:51.837Z,100.00
2023-02-25T04:52:19.984Z,100.00
2023-02-25T04:54:47.855Z,100.00
2023-02-25T04:57:17.608Z,100.00
2023-02-25T04:59:45.520Z,100.00
2023-02-25T05:02:13.621Z,100.00
2023-02-25T05:04:41.707Z,100.00
2023-02-25T05:07:09.896Z,100.00
2023-02-25T05:09:37.743Z,100.00
2023-02-25T05:12:05.731Z,100.00
2023-02-25T05:14:34.933Z,100.00
2023-02-25T05:17:02.839Z,100.00
2023-02-25T05:19:30.699Z,100.00
2023-02-25T05:21:58.498Z,100.00
2023-02-25T05:24:26.638Z,100.00
2023-02-25T05:26:55.215Z,100.00
2023-02-25T05:29:23.189Z,100.00
2023-02-25T05:31:52.567Z,100.00
2023-02-25T05:34:22.864Z,100.00
2023-02-25T05:36:50.615Z,100.00
2023-02-25T05:39:18.524Z,100.00
2023-02-25T05:41:46.357Z,100.00
2023-02-25T05:44:14.163Z,100.00
2023-02-25T05:46:41.973Z,100.00
2023-02-25T05:49:11.654Z,100.00
2023-02-25T05:51:39.449Z,100.00
2023-02-25T05:54:07.303Z,100.00
2023-02-25T05:56:35.130Z,100.00
2023-02-25T05:59:02.990Z,100.00
2023-02-25T06:01:31.782Z,100.00
2023-02-25T06:04:00.552Z,100.00
2023-02-25T06:06:31.601Z,100.00
2023-02-25T06:08:59.799Z,100.00
2023-02-25T06:11:29.229Z,100.00
2023-02-25T06:13:59.011Z,100.00
2023-02-25T06:16:31.970Z,100.00
2023-02-25T06:19:01.379Z,100.00
2023-02-25T06:21:30.989Z,100.00
2023-02-25T06:23:58.900Z,100.00
2023-02-25T06:26:26.845Z,100.00
2023-02-25T06:28:55.285Z,100.00
2023-02-25T06:31:25.012Z,100.00
2023-02-25T06:33:53.367Z,100.00
2023-02-25T06:36:22.073Z,100.00
2023-02-25T06:38:51.730Z,100.00
2023-02-25T06:41:21.842Z,100.00
2023-02-25T06:43:52.005Z,100.00
2023-02-25T06:46:23.039Z,100.00
2023-02-25T06:48:51.134Z,100.00
2023-02-25T06:51:19.162Z,100.00
2023-02-25T06:53:47.523Z,100.00
2023-02-25T06:56:20.132Z,100.00
2023-02-25T06:58:48.824Z,100.00
2023-02-25T07:01:17.986Z,100.00
2023-02-25T07:03:46.217Z,100.00
2023-02-25T07:06:15.853Z,100.00
2023-02-25T07:08:44.148Z,100.00
2023-02-25T07:11:29.224Z,100.00
2023-02-25T07:13:57.628Z,100.00
2023-02-25T07:16:26.090Z,100.00
2023-02-25T07:18:54.210Z,100.00
2023-02-25T07:21:22.968Z,100.00
2023-02-25T07:23:51.611Z,100.00
2023-02-25T07:26:21.046Z,100.00
2023-02-25T07:28:49.129Z,100.00
2023-02-25T07:31:19.003Z,100.00
2023-02-25T07:33:47.137Z,100.00
2023-02-25T07:36:15.797Z,100.00
2023-02-25T07:38:44.202Z,100.00
2023-02-25T07:41:14.085Z,100.00
2023-02-25T07:43:43.756Z,100.00
2023-02-25T07:46:13.228Z,100.00
2023-02-25T07:48:42.046Z,100.00
2023-02-25T07:51:12.350Z,100.00
2023-02-25T07:53:41.060Z,100.00
2023-02-25T07:56:10.391Z,100.00
2023-02-25T07:58:38.542Z,100.00
2023-02-25T08:01:10.820Z,100.00
2023-02-25T08:03:39.167Z,100.00
2023-02-25T08:06:09.134Z,100.00
2023-02-25T08:08:37.563Z,100.00
2023-02-25T08:11:08.921Z,100.00
2023-02-25T08:13:37.361Z,100.00
2023-02-25T08:16:06.111Z,100.00
2023-02-25T08:18:35.405Z,100.00
2023-02-25T08:21:04.399Z,100.00
2023-02-25T08:23:32.832Z,100.00
2023-02-25T08:26:01.652Z,100.00
2023-02-25T08:28:34.379Z,100.00
2023-02-25T08:31:04.352Z,100.00
2023-02-25T08:33:32.662Z,99.26
2023-02-25T08:36:10.163Z,97.75
2023-02-25T08:38:38.921Z,96.43
2023-02-25T08:41:07.568Z,97.72
2023-02-25T08:43:35.637Z,95.10
2023-02-25T08:46:04.456Z,94.74
2023-02-25T08:48:32.296Z,93.89
2023-02-25T08:51:03.614Z,92.20
2023-02-25T08:53:32.926Z,92.21
2023-02-25T08:56:04.072Z,92.17
2023-02-25T08:58:32.044Z,92.78
2023-02-25T09:01:00.353Z,91.62
2023-02-25T09:03:28.665Z,90.98
2023-02-25T09:05:57.338Z,90.36
2023-02-25T09:08:25.683Z,87.88
2023-02-25T09:10:55.246Z,85.98
2023-02-25T09:13:23.059Z,86.42
2023-02-25T09:15:57.681Z,86.62
2023-02-25T09:18:25.735Z,88.28
2023-02-25T09:20:53.782Z,86.66
2023-02-25T09:23:21.925Z,86.65
2023-02-25T09:25:50.044Z,87.96
2023-02-25T09:28:19.225Z,88.36
2023-02-25T09:30:47.671Z,89.54
2023-02-25T09:33:15.633Z,91.73
2023-02-25T09:35:43.497Z,90.44
2023-02-25T09:38:11.332Z,91.84
2023-02-25T09:40:41.136Z,91.72
2023-02-25T09:43:23.130Z,92.53
2023-02-25T09:45:53.982Z,93.97
2023-02-25T09:48:27.504Z,92.39
2023-02-25T09:51:03.919Z,93.88
2023-02-25T09:53:36.996Z,95.32
2023-02-25T09:56:07.422Z,96.39
2023-02-25T09:58:42.359Z,97.14
2023-02-25T10:01:17.504Z,97.47
2023-02-25T10:03:54.487Z,97.88
2023-02-25T10:06:27.638Z,96.67
2023-02-25T10:09:06.042Z,96.98
2023-02-25T10:11:47.730Z,96.17
2023-02-25T10:14:31.724Z,95.26
2023-02-25T10:17:06.946Z,93.01
2023-02-25T10:19:48.194Z,91.60
2023-02-25T10:22:34.421Z,91.03
2023-02-25T10:25:11.900Z,91.88
2023-02-25T10:27:44.621Z,90.61
2023-02-25T10:30:17.957Z,87.21
2023-02-25T10:32:46.959Z,83.09
2023-02-25T10:35:18.388Z,84.58
2023-02-25T10:37:46.326Z,83.74
2023-02-25T10:40:17.600Z,82.76
2023-02-25T10:42:48.902Z,83.83
2023-02-25T10:45:23.501Z,83.30
2023-02-25T10:47:59.977Z,83.93
2023-02-25T10:50:42.941Z,82.88
2023-02-25T10:53:16.154Z,78.69
2023-02-25T10:55:52.424Z,76.73
2023-02-25T10:58:27.891Z,74.97
2023-02-25T11:01:02.198Z,74.89
2023-02-25T11:03:32.510Z,70.26
2023-02-25T11:06:13.658Z,65.11
2023-02-25T11:08:44.194Z,67.39
2023-02-25T11:11:19.573Z,67.96
2023-02-25T11:14:05.614Z,69.11
2023-02-25T11:16:37.876Z,68.75
2023-02-25T11:19:15.016Z,68.61
2023-02-25T11:21:43.572Z,67.81
2023-02-25T11:24:17.322Z,67.98
2023-02-25T11:26:47.765Z,68.68
2023-02-25T11:29:20.564Z,66.73
2023-02-25T11:31:53.302Z,63.03
2023-02-25T11:34:24.556Z,64.15
2023-02-25T11:36:53.154Z,63.90
2023-02-25T11:39:23.069Z,57.97
2023-02-25T11:41:53.063Z,59.41
2023-02-25T11:44:24.706Z,57.97
2023-02-25T11:47:00.289Z,56.86
2023-02-25T11:49:46.472Z,57.17
2023-02-25T11:52:22.488Z,58.61
2023-02-25T11:55:01.316Z,58.29
2023-02-25T11:57:40.745Z,58.16
2023-02-25T12:00:25.530Z,56.22
2023-02-25T12:03:11.351Z,55.38
2023-02-25T12:06:05.014Z,56.99
2023-02-25T12:08:55.723Z,56.02
2023-02-25T12:11:48.338Z,55.70
2023-02-25T12:14:42.455Z,55.29
2023-02-25T12:17:41.938Z,54.45
2023-02-25T12:20:46.273Z,55.83
2023-02-25T12:23:55.951Z,54.96
2023-02-25T12:26:35.915Z,55.84
2023-02-25T12:29:27.031Z,53.86
2023-02-25T12:32:09.308Z,56.16
2023-02-25T12:35:25.005Z,55.23
2023-02-25T12:38:34.380Z,55.67
2023-02-25T12:41:17.192Z,56.70
2023-02-25T12:43:51.397Z,57.35
2023-02-25T12:46:39.874Z,58.09
2023-02-25T12:49:34.465Z,61.14
2023-02-25T12:52:19.490Z,62.75
2023-02-25T12:55:17.116Z,61.80
2023-02-25T12:57:57.248Z,63.68
2023-02-25T13:00:49.860Z,65.07
2023-02-25T13:03:40.830Z,64.66
2023-02-25T13:06:36.545Z,61.20
2023-02-25T13:09:39.442Z,59.86
2023-02-25T13:12:23.046Z,60.79
2023-02-25T13:15:05.587Z,59.11
2023-02-25T13:17:54.798Z,58.05
2023-02-25T13:20:48.455Z,57.69
2023-02-25T13:23:58.178Z,55.66
2023-02-25T13:26:46.534Z,57.48
2023-02-25T13:29:27.431Z,57.72
2023-02-25T13:32:11.263Z,58.60
2023-02-25T13:34:47.545Z,58.04
2023-02-25T13:37:38.139Z,57.83
2023-02-25T13:40:21.847Z,58.60
2023-02-25T13:43:06.506Z,59.86
2023-02-25T13:45:50.488Z,60.34
2023-02-25T13:48:39.948Z,57.89
2023-02-25T13:51:50.377Z,59.24
2023-02-25T13:54:38.273Z,55.46
2023-02-25T13:57:18.158Z,56.65
2023-02-25T14:00:31.794Z,56.07
2023-02-25T14:03:49.092Z,56.34
2023-02-25T14:06:27.145Z,54.83
2023-02-25T14:09:11.338Z,55.69
2023-02-25T14:11:57.801Z,55.43
2023-02-25T14:15:02.444Z,55.82
2023-02-25T14:17:47.554Z,55.00
2023-02-25T14:20:29.564Z,54.00
2023-02-25T14:23:04.170Z,52.98
2023-02-25T14:25:51.048Z,53.77
2023-02-25T14:28:27.010Z,51.90
2023-02-25T14:31:07.428Z,52.36
2023-02-25T14:33:53.535Z,52.89
2023-02-25T14:36:37.878Z,53.07
2023-02-25T14:39:24.471Z,53.69
2023-02-25T14:42:05.583Z,54.09
2023-02-25T14:44:39.119Z,56.95
2023-02-25T14:47:12.598Z,59.11
2023-02-25T14:49:47.144Z,60.23
2023-02-25T14:52:51.668Z,60.18
2023-02-25T14:55:55.987Z,61.27
2023-02-25T14:58:44.348Z,61.15
2023-02-25T15:01:26.958Z,61.33
2023-02-25T15:04:25.866Z,62.28
2023-02-25T15:07:16.118Z,61.58
2023-02-25T15:10:09.514Z,61.16
2023-02-25T15:12:55.658Z,58.17
2023-02-25T15:15:35.990Z,55.35
2023-02-25T15:18:25.743Z,55.19
2023-02-25T15:20:54.365Z,54.62
2023-02-25T15:23:23.644Z,54.55
2023-02-25T15:26:14.064Z,55.37
2023-02-25T15:28:44.398Z,56.69
2023-02-25T15:31:30.713Z,56.57
2023-02-25T15:34:30.014Z,57.08
2023-02-25T15:37:21.244Z,55.15
2023-02-25T15:39:51.915Z,52.20
2023-02-25T15:42:46.666Z,51.19
2023-02-25T15:45:40.225Z,51.79
2023-02-25T15:48:32.082Z,50.41
2023-02-25T15:51:01.437Z,49.86
2023-02-25T15:53:45.064Z,50.68
2023-02-25T15:56:45.473Z,51.04
2023-02-25T15:59:41.395Z,51.24
2023-02-25T16:02:42.465Z,52.05
2023-02-25T16:05:29.119Z,53.58
2023-02-25T16:08:15.423Z,54.39
2023-02-25T16:10:47.078Z,54.04
2023-02-25T16:13:17.612Z,51.34
2023-02-25T16:15:52.509Z,50.82
2023-02-25T16:18:27.757Z,51.19
2023-02-25T16:21:00.465Z,51.87
2023-02-25T16:23:29.056Z,52.05
2023-02-25T16:26:08.279Z,52.49
2023-02-25T16:28:45.254Z,52.50
2023-02-25T16:31:20.947Z,53.57
2023-02-25T16:33:54.453Z,53.88
2023-02-25T16:36:31.945Z,53.36
2023-02-25T16:39:03.439Z,54.29
2023-02-25T16:41:38.036Z,55.63
2023-02-25T16:44:07.781Z,55.11
2023-02-25T16:46:39.448Z,56.34
2023-02-25T16:49:11.572Z,55.33
2023-02-25T16:51:42.316Z,54.53
2023-02-25T16:54:15.122Z,55.96
2023-02-25T16:56:46.362Z,58.00
2023-02-25T16:59:21.627Z,56.29
2023-02-25T17:01:57.299Z,56.37
2023-02-25T17:04:29.769Z,55.95
2023-02-25T17:07:17.809Z,56.69
2023-02-25T17:09:47.890Z,56.96
2023-02-25T17:12:17.324Z,56.47
2023-02-25T17:14:46.979Z,56.87
2023-02-25T17:17:22.284Z,58.10
2023-02-25T17:19:51.905Z,57.71
2023-02-25T17:22:22.542Z,56.95
2023-02-25T17:24:53.036Z,57.50
2023-02-25T17:27:22.272Z,59.04
2023-02-25T17:29:50.878Z,59.19
2023-02-25T17:32:25.320Z,58.25
2023-02-25T17:34:56.519Z,58.99
2023-02-25T17:37:27.057Z,59.35
2023-02-25T17:39:55.498Z,58.82
2023-02-25T17:42:29.757Z,59.36
2023-02-25T17:44:58.911Z,58.70
2023-02-25T17:47:30.603Z,59.45
2023-02-25T17:50:00.432Z,59.91
2023-02-25T17:52:31.124Z,60.70
2023-02-25T17:55:01.958Z,59.27
2023-02-25T17:57:31.829Z,59.46
2023-02-25T18:00:10.177Z,59.07
2023-02-25T18:02:41.301Z,59.27
2023-02-25T18:05:21.458Z,58.53
2023-02-25T18:08:16.190Z,58.64
2023-02-25T18:10:55.976Z,58.52
2023-02-25T18:13:33.771Z,57.51
2023-02-25T18:16:42.284Z,58.46
2023-02-25T18:19:27.864Z,58.71
2023-02-25T18:21:56.247Z,59.77
2023-02-25T18:24:28.312Z,59.42
2023-02-25T18:27:05.278Z,58.71
2023-02-25T18:29:33.923Z,58.66
2023-02-25T18:32:02.013Z,59.64
2023-02-25T18:34:31.793Z,60.07
2023-02-25T18:37:00.333Z,58.30
2023-02-25T18:39:28.467Z,59.12
2023-02-25T18:41:56.298Z,59.87
2023-02-25T18:44:24.183Z,58.49
2023-02-25T18:46:52.069Z,59.35
2023-02-25T18:49:19.907Z,58.88
2023-02-25T18:51:52.053Z,58.85
2023-02-25T18:54:20.027Z,58.93
2023-02-25T18:56:48.145Z,60.00
2023-02-25T18:59:16.058Z,60.31
2023-02-25T19:01:45.211Z,60.17
2023-02-25T19:04:17.419Z,59.89
2023-02-25T19:06:46.716Z,60.03
2023-02-25T19:09:17.203Z,59.79
2023-02-25T19:11:45.094Z,60.61
2023-02-25T19:14:18.509Z,61.55
2023-02-25T19:16:46.393Z,61.07
2023-02-25T19:19:15.012Z,60.78
2023-02-25T19:21:42.897Z,61.90
2023-02-25T19:24:13.391Z,61.72
2023-02-25T19:26:42.660Z,60.82
2023-02-25T19:29:10.588Z,62.60
2023-02-25T19:31:38.559Z,62.83
2023-02-25T19:34:06.469Z,62.05
2023-02-25T19:36:34.367Z,62.90
2023-02-25T19:39:02.149Z,65.18
2023-02-25T19:41:30.554Z,65.03
2023-02-25T19:43:59.760Z,63.91
2023-02-25T19:46:28.607Z,63.72
2023-02-25T19:48:56.424Z,64.11
2023-02-25T19:51:24.278Z,64.51
2023-02-25T19:53:52.292Z,63.93
2023-02-25T19:56:20.147Z,64.64
2023-02-25T19:58:47.963Z,63.71
2023-02-25T20:01:17.283Z,63.95
2023-02-25T20:03:45.193Z,64.33
2023-02-25T20:06:13.689Z,64.90
2023-02-25T20:08:41.844Z,64.17
2023-02-25T20:11:10.544Z,65.35
2023-02-25T20:13:39.078Z,65.88
2023-02-25T20:16:09.036Z,65.98
2023-02-25T20:18:38.751Z,66.93
2023-02-25T20:21:07.205Z,65.60
2023-02-25T20:23:35.155Z,65.19
2023-02-25T20:26:08.125Z,66.06
2023-02-25T20:28:36.804Z,65.71
2023-02-25T20:31:06.995Z,65.48
2023-02-25T20:33:34.783Z,64.95
2023-02-25T20:36:18.289Z,66.75
2023-02-25T20:38:58.790Z,66.53
2023-02-25T20:41:26.897Z,68.58
2023-02-25T20:43:54.859Z,68.78
2023-02-25T20:46:27.335Z,70.15
2023-02-25T20:48:55.516Z,71.50
2023-02-25T20:51:25.473Z,71.79
2023-02-25T20:53:54.063Z,72.43
2023-02-25T20:56:24.162Z,72.73
2023-02-25T20:58:53.328Z,72.97
2023-02-25T21:01:22.050Z,73.87
2023-02-25T21:03:50.285Z,74.88
2023-02-25T21:06:19.774Z,75.97
2023-02-25T21:08:49.252Z,77.36
2023-02-25T21:11:17.133Z,79.00
2023-02-25T21:13:46.644Z,79.93
2023-02-25T21:16:16.380Z,81.56
2023-02-25T21:18:45.166Z,82.21
2023-02-25T21:21:14.537Z,83.43
2023-02-25T21:23:43.195Z,84.67
2023-02-25T21:26:13.018Z,84.82
2023-02-25T21:28:42.186Z,86.31
2023-02-25T21:31:12.715Z,86.86
2023-02-25T21:33:41.196Z,87.41
2023-02-25T21:36:10.568Z,88.07
2023-02-25T21:38:39.258Z,88.20
2023-02-25T21:41:08.968Z,87.29
2023-02-25T21:43:38.907Z,87.13
2023-02-25T21:46:10.841Z,86.66
2023-02-25T21:48:39.874Z,87.21
2023-02-25T21:51:08.038Z,86.10
2023-02-25T21:53:36.146Z,85.57
2023-02-25T21:56:10.505Z,85.55
2023-02-25T21:58:40.024Z,84.60
2023-02-25T22:01:15.681Z,83.41
2023-02-25T22:03:44.287Z,83.66
2023-02-25T22:06:12.922Z,83.38
2023-02-25T22:08:41.560Z,82.45
2023-02-25T22:11:13.097Z,82.17
2023-02-25T22:13:43.283Z,81.84
2023-02-25T22:16:11.791Z,81.21
2023-02-25T22:18:39.958Z,81.37
2023-02-25T22:21:10.709Z,81.41
2023-02-25T22:23:39.194Z,81.75
2023-02-25T22:26:09.345Z,83.07
2023-02-25T22:28:37.678Z,82.95
2023-02-25T22:31:10.051Z,81.80
2023-02-25T22:33:38.578Z,82.02
2023-02-25T22:36:07.764Z,82.76
2023-02-25T22:38:37.989Z,82.82
2023-02-25T22:41:05.932Z,83.15
2023-02-25T22:43:34.758Z,83.21
2023-02-25T22:46:08.546Z,83.32
2023-02-25T22:48:37.220Z,84.52
2023-02-25T22:51:06.507Z,85.10
2023-02-25T22:53:34.683Z,86.03
2023-02-25T22:56:03.618Z,84.86
2023-02-25T22:58:31.707Z,85.37
2023-02-25T23:01:00.485Z,85.92
2023-02-25T23:03:29.944Z,85.44
2023-02-25T23:05:57.921Z,86.70
2023-02-25T23:08:26.328Z,85.90
2023-02-25T23:10:54.647Z,86.61
2023-02-25T23:13:22.734Z,85.89
2023-02-25T23:15:50.944Z,86.37
2023-02-25T23:18:19.095Z,86.52
2023-02-25T23:20:53.671Z,86.52
2023-02-25T23:23:21.775Z,85.76
2023-02-25T23:25:52.265Z,85.97
2023-02-25T23:28:20.368Z,86.46
2023-02-25T23:30:48.717Z,86.46
2023-02-25T23:33:17.929Z,87.92
2023-02-25T23:35:45.969Z,87.78
2023-02-25T23:38:15.369Z,88.08
2023-02-25T23:40:43.293Z,87.91
2023-02-25T23:43:11.394Z,87.78
2023-02-25T23:45:39.298Z,88.31
2023-02-25T23:48:07.499Z,88.01
2023-02-25T23:50:35.605Z,87.82
2023-02-25T23:53:03.702Z,88.54
2023-02-25T23:55:32.960Z,88.71
2023-02-25T23:58:00.905Z,88.20
